createdAt,value
2022-12-02T00:01:19.068Z,39.45
2022-12-02T00:03:46.404Z,40.50
2022-12-02T00:06:16.037Z,36.63
2022-12-02T00:08:42.541Z,36.05
2022-12-02T00:11:25.760Z,39.40
2022-12-02T00:13:52.206Z,36.92
2022-12-02T00:16:23.700Z,35.30
2022-12-02T00:18:51.023Z,35.42
2022-12-02T00:21:17.686Z,32.58
2022-12-02T00:23:44.250Z,40.72
2022-12-02T00:26:10.648Z,31.83
2022-12-02T00:28:37.324Z,42.90
2022-12-02T00:31:04.137Z,32.35
2022-12-02T00:33:30.707Z,36.05
2022-12-02T00:35:57.124Z,35.80
2022-12-02T00:38:23.525Z,34.30
2022-12-02T00:40:49.874Z,37.85
2022-12-02T00:43:34.759Z,36.53
2022-12-02T00:46:19.739Z,42.20
2022-12-02T00:48:46.157Z,36.17
2022-12-02T00:51:12.598Z,37.78
2022-12-02T00:53:38.952Z,35.40
2022-12-02T00:56:05.553Z,37.03
2022-12-02T00:58:31.917Z,38.05
2022-12-02T01:00:58.526Z,34.33
2022-12-02T01:03:25.073Z,37.35
2022-12-02T01:05:51.487Z,39.55
2022-12-02T01:08:17.885Z,34.80
2022-12-02T01:10:44.227Z,40.05
2022-12-02T01:13:10.680Z,39.33
2022-12-02T01:15:37.062Z,36.85
2022-12-02T01:18:03.410Z,34.30
2022-12-02T01:20:29.773Z,39.03
2022-12-02T01:22:56.213Z,41.50
2022-12-02T01:25:22.660Z,40.35
2022-12-02T01:27:48.980Z,38.83
2022-12-02T01:30:15.571Z,36.20
2022-12-02T01:32:41.978Z,36.55
2022-12-02T01:35:08.854Z,43.17
2022-12-02T01:37:35.323Z,39.33
2022-12-02T01:40:02.137Z,35.97
2022-12-02T01:42:28.722Z,40.17
2022-12-02T01:44:55.149Z,38.53
2022-12-02T01:47:21.657Z,40.78
2022-12-02T01:49:48.076Z,41.50
2022-12-02T01:52:14.816Z,38.95
2022-12-02T01:54:41.168Z,39.20
2022-12-02T01:57:12.619Z,36.92
2022-12-02T01:59:40.589Z,36.80
2022-12-02T02:02:26.701Z,43.55
2022-12-02T02:04:55.686Z,34.53
2022-12-02T02:07:22.820Z,39.35
2022-12-02T02:09:49.380Z,38.25
2022-12-02T02:12:15.788Z,37.70
2022-12-02T02:14:42.393Z,39.55
2022-12-02T02:17:08.955Z,36.45
2022-12-02T02:19:36.060Z,40.63
2022-12-02T02:22:09.587Z,37.67
2022-12-02T02:24:36.057Z,37.60
2022-12-02T02:27:02.885Z,36.75
2022-12-02T02:29:29.391Z,35.33
2022-12-02T02:31:56.038Z,36.42
2022-12-02T02:34:22.607Z,35.80
2022-12-02T02:36:49.031Z,37.88
2022-12-02T02:39:15.571Z,36.05
2022-12-02T02:41:41.974Z,36.05
2022-12-02T02:44:08.561Z,32.15
2022-12-02T02:46:35.169Z,35.30
2022-12-02T02:49:01.743Z,39.90
2022-12-02T02:51:28.238Z,33.42
2022-12-02T02:53:54.576Z,38.40
2022-12-02T02:56:20.966Z,34.47
2022-12-02T02:58:47.372Z,33.08
2022-12-02T03:01:19.592Z,36.67
2022-12-02T03:03:54.495Z,33.70
2022-12-02T03:06:23.381Z,33.47
2022-12-02T03:08:50.815Z,32.17
2022-12-02T03:11:17.713Z,34.03
2022-12-02T03:13:47.978Z,35.13
2022-12-02T03:16:16.909Z,35.63
2022-12-02T03:18:46.226Z,33.72
2022-12-02T03:21:15.848Z,36.58
2022-12-02T03:23:42.893Z,41.63
2022-12-02T03:26:09.706Z,37.65
2022-12-02T03:28:36.246Z,38.40
2022-12-02T03:31:03.695Z,35.08
2022-12-02T03:33:30.172Z,36.10
2022-12-02T03:35:56.904Z,33.67
2022-12-02T03:38:23.322Z,38.20
2022-12-02T03:40:49.861Z,34.65
2022-12-02T03:43:16.215Z,37.40
2022-12-02T03:45:43.074Z,33.35
2022-12-02T03:48:10.376Z,36.53
2022-12-02T03:50:37.563Z,30.05
2022-12-02T03:53:04.082Z,38.17
2022-12-02T03:55:30.489Z,38.20
2022-12-02T03:58:03.874Z,38.35
2022-12-02T04:00:30.328Z,33.95
2022-12-02T04:02:56.789Z,37.38
2022-12-02T04:05:23.205Z,42.05
2022-12-02T04:07:49.672Z,42.83
2022-12-02T04:10:16.120Z,33.45
2022-12-02T04:12:42.489Z,34.97
2022-12-02T04:15:09.472Z,33.50
2022-12-02T04:17:35.833Z,37.55
2022-12-02T04:20:04.938Z,39.33
2022-12-02T04:22:31.773Z,37.13
2022-12-02T04:24:59.708Z,42.85
2022-12-02T04:27:26.700Z,37.28
2022-12-02T04:29:53.060Z,41.28
2022-12-02T04:32:19.403Z,37.63
2022-12-02T04:34:45.893Z,36.60
2022-12-02T04:37:12.244Z,40.88
2022-12-02T04:39:38.606Z,37.83
2022-12-02T04:42:05.295Z,39.55
2022-12-02T04:44:31.629Z,40.05
2022-12-02T04:46:57.986Z,39.08
2022-12-02T04:49:24.409Z,38.70
2022-12-02T04:51:50.742Z,37.80
2022-12-02T04:54:17.076Z,40.22
2022-12-02T04:56:43.476Z,37.13
2022-12-02T04:59:09.859Z,40.17
2022-12-02T05:01:36.230Z,39.55
2022-12-02T05:04:02.727Z,42.00
2022-12-02T05:06:29.144Z,38.70
2022-12-02T05:08:55.526Z,40.63
2022-12-02T05:11:21.898Z,39.50
2022-12-02T05:13:48.298Z,37.63
2022-12-02T05:16:14.795Z,37.58
2022-12-02T05:18:41.266Z,39.55
2022-12-02T05:21:07.710Z,39.15
2022-12-02T05:23:34.042Z,41.67
2022-12-02T05:26:00.382Z,39.83
2022-12-02T05:28:26.718Z,50.47
2022-12-02T05:30:53.058Z,39.00
2022-12-02T05:33:19.414Z,45.50
2022-12-02T05:35:45.753Z,41.65
2022-12-02T05:38:12.105Z,43.53
2022-12-02T05:40:38.475Z,41.05
2022-12-02T05:43:17.985Z,46.25
2022-12-02T05:45:44.811Z,40.90
2022-12-02T05:48:13.079Z,40.45
2022-12-02T05:50:41.108Z,42.33
2022-12-02T05:53:13.074Z,40.83
2022-12-02T05:55:39.594Z,45.80
2022-12-02T05:58:07.285Z,41.35
2022-12-02T06:00:33.710Z,47.20
2022-12-02T06:03:05.860Z,42.25
2022-12-02T06:05:42.869Z,48.28
2022-12-02T06:08:22.186Z,42.42
2022-12-02T06:10:57.601Z,47.85
2022-12-02T06:13:27.370Z,51.83
2022-12-02T06:15:54.632Z,40.38
2022-12-02T06:18:29.523Z,55.65
2022-12-02T06:20:59.145Z,45.42
2022-12-02T06:23:27.671Z,58.75
2022-12-02T06:25:55.026Z,47.78
2022-12-02T06:28:34.880Z,44.42
2022-12-02T06:31:10.613Z,120.10
2022-12-02T06:33:38.519Z,59.67
2022-12-02T06:36:11.621Z,83.90
2022-12-02T06:38:55.929Z,54.53
2022-12-02T06:41:26.054Z,50.05
2022-12-02T06:44:16.688Z,49.55
2022-12-02T06:46:43.122Z,47.00
2022-12-02T06:49:21.458Z,45.45
2022-12-02T06:51:55.555Z,61.13
2022-12-02T06:54:26.280Z,57.88
2022-12-02T06:56:52.784Z,52.38
2022-12-02T06:59:23.071Z,50.85
2022-12-02T07:01:57.292Z,51.97
2022-12-02T07:04:34.141Z,42.13
2022-12-02T07:07:22.223Z,59.42
2022-12-02T07:09:53.657Z,52.60
2022-12-02T07:14:52.108Z,53.92
2022-12-02T07:19:57.217Z,48.83
2022-12-02T07:22:33.690Z,53.47
2022-12-02T07:25:18.997Z,47.50
2022-12-02T07:27:49.933Z,49.67
2022-12-02T07:30:39.868Z,51.33
2022-12-02T07:33:06.338Z,43.22
2022-12-02T07:35:32.879Z,48.65
2022-12-02T07:37:59.296Z,55.35
2022-12-02T07:40:25.716Z,55.60
2022-12-02T07:42:52.502Z,55.30
2022-12-02T07:45:20.036Z,42.47
2022-12-02T07:47:46.626Z,51.65
2022-12-02T07:50:14.995Z,50.80
2022-12-02T07:52:41.351Z,59.63
2022-12-02T07:55:08.327Z,48.15
2022-12-02T07:57:35.132Z,45.58
2022-12-02T08:00:04.032Z,49.47
2022-12-02T08:02:30.352Z,48.17
2022-12-02T08:04:56.788Z,54.20
2022-12-02T08:07:23.520Z,56.72
2022-12-02T08:09:50.044Z,49.83
2022-12-02T08:12:16.490Z,57.67
2022-12-02T08:14:42.879Z,53.38
2022-12-02T08:17:09.429Z,55.35
2022-12-02T08:19:35.909Z,60.10
2022-12-02T08:22:02.271Z,59.63
2022-12-02T08:24:28.740Z,49.30
2022-12-02T08:26:55.278Z,51.35
2022-12-02T08:29:21.868Z,56.20
2022-12-02T08:31:48.274Z,55.55
2022-12-02T08:34:14.732Z,59.63
2022-12-02T08:36:41.128Z,56.95
2022-12-02T08:39:07.479Z,60.08
2022-12-02T08:41:37.752Z,59.35
2022-12-02T08:44:04.927Z,48.35
2022-12-02T08:46:32.109Z,51.70
2022-12-02T08:48:58.695Z,59.65
2022-12-02T08:51:25.076Z,58.95
2022-12-02T08:53:51.924Z,50.70
2022-12-02T08:56:18.296Z,57.83
2022-12-02T08:58:44.940Z,55.88
2022-12-02T09:01:11.433Z,55.33
2022-12-02T09:03:37.974Z,52.22
2022-12-02T09:06:04.574Z,58.70
2022-12-02T09:08:31.091Z,60.88
2022-12-02T09:10:57.591Z,62.15
2022-12-02T09:13:24.126Z,59.03
2022-12-02T09:15:50.753Z,57.75
2022-12-02T09:18:17.178Z,56.85
2022-12-02T09:20:43.616Z,62.53
2022-12-02T09:23:09.992Z,59.63
2022-12-02T09:25:36.695Z,53.33
2022-12-02T09:28:03.030Z,66.03
2022-12-02T09:30:29.409Z,62.08
2022-12-02T09:32:55.732Z,52.05
2022-12-02T09:35:22.085Z,56.13
2022-12-02T09:37:48.620Z,59.97
2022-12-02T09:40:15.360Z,49.15
2022-12-02T09:42:41.947Z,55.53
2022-12-02T09:45:08.691Z,61.60
2022-12-02T09:47:35.392Z,45.10
2022-12-02T09:50:01.948Z,49.53
2022-12-02T09:52:30.057Z,53.97
2022-12-02T09:54:59.330Z,54.55
2022-12-02T09:57:28.742Z,50.45
2022-12-02T09:59:55.135Z,53.08
2022-12-02T10:02:28.757Z,48.50
2022-12-02T10:04:59.377Z,62.28
2022-12-02T10:07:25.756Z,57.10
2022-12-02T10:09:52.228Z,54.33
2022-12-02T10:12:18.588Z,54.10
2022-12-02T10:14:50.199Z,50.65
2022-12-02T10:17:19.115Z,49.30
2022-12-02T10:19:47.153Z,54.03
2022-12-02T10:22:18.904Z,50.65
2022-12-02T10:24:46.008Z,51.30
2022-12-02T10:27:30.736Z,47.00
2022-12-02T10:30:18.333Z,49.50
2022-12-02T10:33:05.475Z,49.25
2022-12-02T10:35:49.820Z,58.25
2022-12-02T10:38:34.021Z,46.03
2022-12-02T10:41:15.780Z,44.63
2022-12-02T10:43:44.935Z,50.13
2022-12-02T10:46:14.249Z,44.90
2022-12-02T10:48:41.702Z,48.40
2022-12-02T10:51:18.766Z,57.00
2022-12-02T10:56:18.642Z,50.95
2022-12-02T10:58:45.222Z,40.75
2022-12-02T11:01:13.372Z,47.58
2022-12-02T11:03:40.439Z,47.33
2022-12-02T11:06:18.989Z,45.00
2022-12-02T11:08:47.253Z,38.08
2022-12-02T11:11:16.963Z,42.88
2022-12-02T11:13:55.777Z,46.22
2022-12-02T11:16:28.342Z,43.58
2022-12-02T11:19:32.791Z,46.10
2022-12-02T11:22:25.176Z,46.20
2022-12-02T11:24:51.799Z,49.70
2022-12-02T11:27:18.908Z,51.92
2022-12-02T11:30:34.707Z,48.55
2022-12-02T11:33:01.173Z,48.17
2022-12-02T11:36:06.069Z,43.50
2022-12-02T11:38:47.532Z,39.95
2022-12-02T11:41:14.858Z,43.95
2022-12-02T11:43:47.323Z,45.30
2022-12-02T11:46:20.030Z,37.13
2022-12-02T11:48:49.886Z,46.80
2022-12-02T11:51:28.485Z,45.58
2022-12-02T11:53:55.608Z,41.55
2022-12-02T11:56:22.743Z,37.17
2022-12-02T11:58:49.153Z,38.50
2022-12-02T12:01:18.845Z,38.45
2022-12-02T12:03:50.776Z,38.95
2022-12-02T12:06:26.381Z,34.80
2022-12-02T12:08:55.393Z,32.80
2022-12-02T12:11:24.898Z,38.78
2022-12-02T12:14:13.039Z,36.03
2022-12-02T12:16:46.502Z,37.20
2022-12-02T12:19:12.922Z,35.67
2022-12-02T12:21:52.272Z,32.42
2022-12-02T12:24:18.658Z,39.47
2022-12-02T12:26:47.959Z,34.53
2022-12-02T12:29:15.227Z,36.83
2022-12-02T12:31:42.023Z,38.42
2022-12-02T12:34:08.998Z,37.72
2022-12-02T12:36:36.484Z,37.60
2022-12-02T12:39:04.458Z,36.53
2022-12-02T12:41:58.472Z,33.05
2022-12-02T12:44:17.494Z,32.65
2022-12-02T12:46:44.225Z,31.42
2022-12-02T12:49:10.669Z,28.45
2022-12-02T12:51:37.053Z,33.97
2022-12-02T12:54:03.598Z,28.05
2022-12-02T12:56:29.926Z,31.63
2022-12-02T12:58:56.275Z,29.95
2022-12-02T13:01:24.981Z,29.55
2022-12-02T13:03:51.702Z,31.88
2022-12-02T13:06:18.186Z,34.63
2022-12-02T13:08:44.510Z,30.23
2022-12-02T13:11:11.015Z,27.02
2022-12-02T13:13:37.434Z,33.58
2022-12-02T13:16:03.890Z,31.42
2022-12-02T13:18:30.271Z,30.25
2022-12-02T13:20:56.704Z,28.80
2022-12-02T13:23:23.050Z,27.25
2022-12-02T13:25:49.396Z,29.13
2022-12-02T13:28:15.720Z,31.10
2022-12-02T13:30:42.973Z,37.58
2022-12-02T13:33:09.705Z,36.47
2022-12-02T13:35:36.196Z,43.55
2022-12-02T13:38:02.874Z,27.17
2022-12-02T13:40:29.271Z,28.70
2022-12-02T13:42:57.728Z,32.08
2022-12-02T13:45:27.876Z,39.20
2022-12-02T13:47:54.301Z,39.28
2022-12-02T13:50:20.754Z,48.28
2022-12-02T13:52:47.312Z,40.92
2022-12-02T13:55:13.717Z,26.75
2022-12-02T13:57:40.155Z,26.65
2022-12-02T14:00:07.295Z,27.15
2022-12-02T14:02:33.734Z,24.75
2022-12-02T14:05:05.724Z,27.55
2022-12-02T14:07:34.476Z,25.60
2022-12-02T14:10:00.970Z,28.67
2022-12-02T14:12:27.327Z,33.10
2022-12-02T14:14:54.064Z,22.95
2022-12-02T14:17:20.567Z,23.00
2022-12-02T14:19:46.928Z,27.65
2022-12-02T14:22:13.266Z,26.83
2022-12-02T14:24:42.125Z,31.33
2022-12-02T14:27:12.084Z,25.20
2022-12-02T14:29:38.486Z,26.95
2022-12-02T14:32:05.200Z,27.58
2022-12-02T14:34:31.805Z,26.60
2022-12-02T14:36:58.455Z,23.52
2022-12-02T14:39:26.091Z,24.95
2022-12-02T14:41:52.591Z,37.83
2022-12-02T14:44:19.992Z,26.70
2022-12-02T14:46:47.206Z,26.42
2022-12-02T14:52:00.835Z,24.65
2022-12-02T14:54:27.278Z,29.52
2022-12-02T14:56:53.663Z,26.45
2022-12-02T14:59:19.999Z,23.35
2022-12-02T15:01:46.465Z,27.17
2022-12-02T15:04:12.930Z,22.52
2022-12-02T15:06:39.474Z,25.15
2022-12-02T15:09:05.922Z,25.77
2022-12-02T15:11:32.367Z,23.95
2022-12-02T15:13:58.740Z,30.90
2022-12-02T15:16:25.292Z,25.80
2022-12-02T15:18:52.778Z,25.42
2022-12-02T15:21:21.179Z,28.27
2022-12-02T15:23:53.631Z,26.67
2022-12-02T15:26:20.222Z,26.08
2022-12-02T15:28:46.646Z,26.98
2022-12-02T15:31:17.455Z,28.13
2022-12-02T15:33:47.708Z,27.50
2022-12-02T15:36:14.964Z,24.98
2022-12-02T15:38:43.363Z,26.98
2022-12-02T15:41:11.008Z,31.02
2022-12-02T15:43:37.555Z,30.77
2022-12-02T15:46:04.064Z,33.35
2022-12-02T15:48:30.411Z,33.88
2022-12-02T15:50:56.771Z,42.83
2022-12-02T15:53:23.537Z,34.75
2022-12-02T15:55:50.704Z,31.08
2022-12-02T15:58:17.284Z,32.17
2022-12-02T16:00:44.923Z,32.90
2022-12-02T16:03:11.291Z,29.67
2022-12-02T16:05:37.761Z,35.63
2022-12-02T16:08:04.490Z,31.20
2022-12-02T16:10:31.366Z,42.38
2022-12-02T16:12:57.802Z,39.45
2022-12-02T16:15:24.246Z,34.78
2022-12-02T16:17:50.702Z,33.40
2022-12-02T16:20:17.323Z,30.73
2022-12-02T16:22:43.776Z,29.35
2022-12-02T16:25:11.271Z,30.55
2022-12-02T16:27:37.737Z,30.88
2022-12-02T16:30:05.744Z,33.60
2022-12-02T16:32:32.088Z,24.15
2022-12-02T16:34:58.619Z,28.77
2022-12-02T16:37:25.059Z,25.77
2022-12-02T16:39:52.542Z,29.20
2022-12-02T16:42:20.807Z,26.48
2022-12-02T16:44:50.659Z,29.85
2022-12-02T16:47:23.303Z,28.73
2022-12-02T16:49:50.441Z,28.15
2022-12-02T16:52:17.014Z,27.42
2022-12-02T16:54:43.409Z,26.38
2022-12-02T16:57:09.777Z,28.38
2022-12-02T16:59:36.213Z,29.08
2022-12-02T17:02:02.811Z,25.73
2022-12-02T17:04:30.220Z,32.65
2022-12-02T17:06:56.631Z,26.27
2022-12-02T17:09:23.994Z,31.60
2022-12-02T17:11:51.381Z,27.00
2022-12-02T17:14:17.821Z,32.03
2022-12-02T17:16:44.343Z,29.92
2022-12-02T17:19:10.803Z,25.92
2022-12-02T17:21:37.277Z,24.08
2022-12-02T17:24:04.065Z,22.40
2022-12-02T17:26:30.371Z,24.27
2022-12-02T17:28:56.715Z,24.58
2022-12-02T17:31:23.129Z,27.65
2022-12-02T17:33:50.577Z,21.73
2022-12-02T17:36:16.973Z,28.98
2022-12-02T17:38:56.711Z,26.65
2022-12-02T17:41:25.189Z,25.10
2022-12-02T17:43:51.769Z,28.30
2022-12-02T17:46:18.724Z,25.40
2022-12-02T17:48:45.399Z,28.38
2022-12-02T17:51:13.552Z,25.60
2022-12-02T17:53:40.113Z,33.40
2022-12-02T17:56:07.399Z,25.55
2022-12-02T17:58:33.834Z,27.02
2022-12-02T18:01:03.505Z,25.58
2022-12-02T18:03:32.730Z,27.33
2022-12-02T18:05:59.218Z,31.30
2022-12-02T18:08:26.660Z,26.38
2022-12-02T18:10:53.050Z,36.75
2022-12-02T18:13:19.463Z,38.28
2022-12-02T18:15:45.872Z,30.58
2022-12-02T18:18:12.364Z,21.98
2022-12-02T18:20:39.013Z,26.45
2022-12-02T18:23:05.566Z,32.17
2022-12-02T18:25:32.066Z,45.55
2022-12-02T18:27:58.469Z,46.83
2022-12-02T18:30:25.011Z,30.02
2022-12-02T18:32:51.519Z,27.05
2022-12-02T18:35:18.073Z,43.88
2022-12-02T18:37:44.568Z,33.40
2022-12-02T18:40:16.886Z,29.50
2022-12-02T18:42:43.467Z,31.67
2022-12-02T18:45:10.495Z,23.98
2022-12-02T18:47:37.084Z,25.05
2022-12-02T18:50:04.755Z,24.85
2022-12-02T18:52:31.171Z,24.70
2022-12-02T18:54:57.578Z,28.70
2022-12-02T18:57:24.017Z,22.80
2022-12-02T18:59:50.460Z,27.27
2022-12-02T19:02:16.923Z,27.70
2022-12-02T19:04:43.490Z,25.80
2022-12-02T19:07:09.862Z,26.08
2022-12-02T19:09:36.386Z,29.15
2022-12-02T19:12:02.944Z,25.75
2022-12-02T19:14:29.386Z,24.38
2022-12-02T19:16:55.844Z,24.67
2022-12-02T19:19:22.303Z,27.85
2022-12-02T19:21:48.722Z,25.30
2022-12-02T19:24:16.187Z,26.70
2022-12-02T19:26:43.705Z,25.88
2022-12-02T19:29:10.082Z,24.73
2022-12-02T19:31:40.969Z,25.33
2022-12-02T19:34:10.315Z,33.13
2022-12-02T19:36:36.770Z,26.10
2022-12-02T19:39:03.346Z,25.98
2022-12-02T19:41:29.750Z,29.23
2022-12-02T19:44:02.301Z,29.30
2022-12-02T19:46:30.346Z,29.60
2022-12-02T19:48:56.733Z,29.10
2022-12-02T19:51:23.325Z,25.63
2022-12-02T19:53:49.713Z,27.02
2022-12-02T19:56:16.191Z,23.95
2022-12-02T19:58:42.515Z,23.00
2022-12-02T20:01:10.087Z,27.88
2022-12-02T20:03:36.945Z,29.45
2022-12-02T20:06:03.682Z,28.73
2022-12-02T20:08:31.231Z,27.52
2022-12-02T20:10:58.014Z,27.70
2022-12-02T20:13:24.424Z,37.45
2022-12-02T20:15:55.049Z,34.05
2022-12-02T20:18:24.726Z,29.58
2022-12-02T20:20:51.117Z,25.13
2022-12-02T20:23:17.476Z,26.38
2022-12-02T20:25:44.076Z,27.33
2022-12-02T20:28:10.566Z,27.23
2022-12-02T20:30:36.965Z,29.58
2022-12-02T20:33:03.503Z,32.17
2022-12-02T20:35:30.055Z,24.58
2022-12-02T20:37:57.719Z,25.25
2022-12-02T20:40:24.161Z,28.23
2022-12-02T20:42:50.664Z,32.03
2022-12-02T20:45:17.428Z,29.85
2022-12-02T20:47:43.897Z,30.98
2022-12-02T20:50:10.924Z,31.33
2022-12-02T20:52:37.477Z,31.02
2022-12-02T20:55:06.377Z,23.50
2022-12-02T20:57:32.903Z,28.13
2022-12-02T20:59:59.364Z,34.38
2022-12-02T21:02:25.865Z,25.17
2022-12-02T21:04:52.628Z,26.90
2022-12-02T21:07:19.273Z,26.75
2022-12-02T21:09:45.660Z,26.83
2022-12-02T21:12:12.158Z,23.10
2022-12-02T21:14:38.647Z,22.85
2022-12-02T21:17:05.032Z,22.42
2022-12-02T21:19:31.592Z,25.35
2022-12-02T21:21:58.064Z,21.35
2022-12-02T21:24:24.500Z,19.95
2022-12-02T21:26:50.916Z,26.75
2022-12-02T21:29:17.342Z,24.02
2022-12-02T21:31:43.869Z,22.17
2022-12-02T21:34:10.385Z,28.50
2022-12-02T21:36:37.593Z,23.90
2022-12-02T21:39:04.214Z,22.33
2022-12-02T21:41:30.558Z,22.83
2022-12-02T21:43:57.024Z,25.25
2022-12-02T21:46:23.638Z,22.05
2022-12-02T21:48:50.086Z,22.35
2022-12-02T21:51:16.534Z,22.10
2022-12-02T21:53:42.979Z,20.90
2022-12-02T21:56:09.553Z,25.52
2022-12-02T21:58:35.945Z,23.00
2022-12-02T22:01:31.418Z,37.45
2022-12-02T22:03:57.879Z,23.27
2022-12-02T22:06:24.372Z,22.35
2022-12-02T22:08:50.836Z,19.80
2022-12-02T22:11:17.221Z,24.23
2022-12-02T22:13:43.643Z,22.25
2022-12-02T22:16:10.103Z,22.27
2022-12-02T22:18:36.571Z,23.13
2022-12-02T22:21:03.204Z,26.00
2022-12-02T22:23:29.673Z,18.67
2022-12-02T22:25:56.063Z,21.35
2022-12-02T22:28:22.603Z,24.08
2022-12-02T22:30:49.099Z,21.67
2022-12-02T22:33:15.609Z,21.88
2022-12-02T22:35:42.231Z,21.10
2022-12-02T22:38:08.667Z,22.58
2022-12-02T22:40:35.203Z,20.40
2022-12-02T22:43:01.678Z,24.30
2022-12-02T22:45:28.078Z,23.98
2022-12-02T22:47:54.574Z,26.10
2022-12-02T22:50:20.974Z,25.42
2022-12-02T22:52:47.440Z,23.10
2022-12-02T22:55:13.863Z,29.33
2022-12-02T22:57:40.339Z,27.83
2022-12-02T23:00:08.018Z,27.80
2022-12-02T23:02:34.607Z,27.85
2022-12-02T23:05:01.020Z,24.23
2022-12-02T23:07:27.441Z,21.67
2022-12-02T23:09:53.802Z,30.35
2022-12-02T23:12:20.170Z,23.17
2022-12-02T23:14:46.490Z,26.08
2022-12-02T23:17:12.896Z,24.30
2022-12-02T23:19:39.249Z,25.13
2022-12-02T23:22:05.597Z,28.00
2022-12-02T23:24:32.044Z,26.38
2022-12-02T23:26:58.479Z,23.35
2022-12-02T23:29:24.926Z,23.10
2022-12-02T23:31:51.347Z,28.65
2022-12-02T23:34:17.694Z,32.65
2022-12-02T23:36:44.194Z,30.20
2022-12-02T23:39:10.646Z,30.27
2022-12-02T23:41:37.021Z,27.63
2022-12-02T23:44:03.450Z,25.60
2022-12-02T23:46:30.013Z,30.95
2022-12-02T23:48:56.447Z,31.40
2022-12-02T23:51:27.100Z,24.73
2022-12-02T23:53:53.867Z,28.83
2022-12-02T23:56:20.570Z,25.40
2022-12-02T23:58:46.897Z,24.40
